sensor_id;sensor_type;location;lat;lon;timestamp;temperature;humidity
70830;SHT30;58451;51.550;7.208;2022-09-09T00:01:49;16.12;73.91
70830;SHT30;58451;51.550;7.208;2022-09-09T00:12:19;16.02;75.17
70830;SHT30;58451;51.550;7.208;2022-09-09T00:15:19;16.01;75.66
70830;SHT30;58451;51.550;7.208;2022-09-09T00:21:15;15.99;74.91
70830;SHT30;58451;51.550;7.208;2022-09-09T00:23:47;15.99;75.19
70830;SHT30;58451;51.550;7.208;2022-09-09T00:31:35;15.96;75.10
70830;SHT30;58451;51.550;7.208;2022-09-09T00:36:54;15.96;75.11
70830;SHT30;58451;51.550;7.208;2022-09-09T00:39:31;15.96;75.72
70830;SHT30;58451;51.550;7.208;2022-09-09T00:48:03;15.95;75.77
70830;SHT30;58451;51.550;7.208;2022-09-09T00:50:46;15.93;75.45
70830;SHT30;58451;51.550;7.208;2022-09-09T00:56:02;15.91;76.31
70830;SHT30;58451;51.550;7.208;2022-09-09T00:58:52;15.87;76.70
70830;SHT30;58451;51.550;7.208;2022-09-09T01:01:30;15.82;78.02
70830;SHT30;58451;51.550;7.208;2022-09-09T01:03:57;15.77;77.32
70830;SHT30;58451;51.550;7.208;2022-09-09T01:06:29;15.73;76.74
70830;SHT30;58451;51.550;7.208;2022-09-09T01:14:49;15.66;76.93
70830;SHT30;58451;51.550;7.208;2022-09-09T01:17:31;15.63;77.29
70830;SHT30;58451;51.550;7.208;2022-09-09T01:29:02;15.68;77.04
70830;SHT30;58451;51.550;7.208;2022-09-09T01:31:41;15.70;76.94
70830;SHT30;58451;51.550;7.208;2022-09-09T01:34:25;15.72;76.70
70830;SHT30;58451;51.550;7.208;2022-09-09T01:39:31;15.70;76.60
70830;SHT30;58451;51.550;7.208;2022-09-09T01:42:07;15.68;76.83
70830;SHT30;58451;51.550;7.208;2022-09-09T01:44:39;15.65;76.87
70830;SHT30;58451;51.550;7.208;2022-09-09T01:47:07;15.62;76.77
70830;SHT30;58451;51.550;7.208;2022-09-09T01:49:48;15.61;76.80
70830;SHT30;58451;51.550;7.208;2022-09-09T01:52:20;15.61;77.42
70830;SHT30;58451;51.550;7.208;2022-09-09T01:54:48;15.60;77.22
70830;SHT30;58451;51.550;7.208;2022-09-09T01:57:31;15.60;77.23
70830;SHT30;58451;51.550;7.208;2022-09-09T02:00:15;15.60;77.24
70830;SHT30;58451;51.550;7.208;2022-09-09T02:08:59;15.61;77.26
70830;SHT30;58451;51.550;7.208;2022-09-09T02:11:31;15.63;78.35
70830;SHT30;58451;51.550;7.208;2022-09-09T02:14:10;15.66;77.80
70830;SHT30;58451;51.550;7.208;2022-09-09T02:16:56;15.67;77.71
70830;SHT30;58451;51.550;7.208;2022-09-09T02:20:07;15.70;77.84
70830;SHT30;58451;51.550;7.208;2022-09-09T02:22:49;15.73;77.76
70830;SHT30;58451;51.550;7.208;2022-09-09T02:25:20;15.75;77.73
70830;SHT30;58451;51.550;7.208;2022-09-09T02:27:55;15.77;77.72
70830;SHT30;58451;51.550;7.208;2022-09-09T02:30:25;15.78;77.79
70830;SHT30;58451;51.550;7.208;2022-09-09T02:33:01;15.79;78.21
70830;SHT30;58451;51.550;7.208;2022-09-09T02:35:44;15.80;78.18
70830;SHT30;58451;51.550;7.208;2022-09-09T02:38:20;15.81;77.93
70830;SHT30;58451;51.550;7.208;2022-09-09T02:40:56;15.80;77.94
70830;SHT30;58451;51.550;7.208;2022-09-09T02:43:33;15.79;78.51
70830;SHT30;58451;51.550;7.208;2022-09-09T02:52:30;15.79;78.01
70830;SHT30;58451;51.550;7.208;2022-09-09T02:55:17;15.81;77.98
70830;SHT30;58451;51.550;7.208;2022-09-09T02:57:58;15.85;77.96
70830;SHT30;58451;51.550;7.208;2022-09-09T03:00:29;15.87;78.03
70830;SHT30;58451;51.550;7.208;2022-09-09T03:02:59;15.90;78.01
70830;SHT30;58451;51.550;7.208;2022-09-09T03:05:27;15.92;78.08
70830;SHT30;58451;51.550;7.208;2022-09-09T03:07:54;15.96;78.34
70830;SHT30;58451;51.550;7.208;2022-09-09T03:10:21;15.99;78.42
70830;SHT30;58451;51.550;7.208;2022-09-09T03:12:48;16.02;78.29
70830;SHT30;58451;51.550;7.208;2022-09-09T03:15:17;16.04;78.53
70830;SHT30;58451;51.550;7.208;2022-09-09T03:17:44;16.06;78.41
70830;SHT30;58451;51.550;7.208;2022-09-09T03:20:12;16.08;78.54
70830;SHT30;58451;51.550;7.208;2022-09-09T03:22:39;16.09;78.53
70830;SHT30;58451;51.550;7.208;2022-09-09T03:25:07;16.10;78.46
70830;SHT30;58451;51.550;7.208;2022-09-09T03:27:34;16.10;78.63
70830;SHT30;58451;51.550;7.208;2022-09-09T03:30:02;16.12;78.87
70830;SHT30;58451;51.550;7.208;2022-09-09T03:32:31;16.10;78.59
70830;SHT30;58451;51.550;7.208;2022-09-09T03:34:58;16.09;78.48
70830;SHT30;58451;51.550;7.208;2022-09-09T03:37:25;16.08;78.45
70830;SHT30;58451;51.550;7.208;2022-09-09T03:39:52;16.06;78.89
70830;SHT30;58451;51.550;7.208;2022-09-09T03:42:22;16.03;78.77
70830;SHT30;58451;51.550;7.208;2022-09-09T03:44:50;16.00;78.58
70830;SHT30;58451;51.550;7.208;2022-09-09T03:47:21;15.96;78.87
70830;SHT30;58451;51.550;7.208;2022-09-09T03:49:50;15.94;78.56
70830;SHT30;58451;51.550;7.208;2022-09-09T03:52:18;15.89;78.57
70830;SHT30;58451;51.550;7.208;2022-09-09T03:54:50;15.86;78.40
70830;SHT30;58451;51.550;7.208;2022-09-09T03:57:20;15.81;78.39
70830;SHT30;58451;51.550;7.208;2022-09-09T03:59:48;15.77;78.41
70830;SHT30;58451;51.550;7.208;2022-09-09T04:02:15;15.74;78.41
70830;SHT30;58451;51.550;7.208;2022-09-09T04:04:43;15.69;78.60
70830;SHT30;58451;51.550;7.208;2022-09-09T04:07:10;15.68;78.53
70830;SHT30;58451;51.550;7.208;2022-09-09T04:09:39;15.64;78.72
70830;SHT30;58451;51.550;7.208;2022-09-09T04:12:07;15.64;78.64
70830;SHT30;58451;51.550;7.208;2022-09-09T04:14:40;15.62;78.58
70830;SHT30;58451;51.550;7.208;2022-09-09T04:17:07;15.63;78.62
70830;SHT30;58451;51.550;7.208;2022-09-09T04:19:34;15.64;78.61
70830;SHT30;58451;51.550;7.208;2022-09-09T04:22:01;15.65;78.78
70830;SHT30;58451;51.550;7.208;2022-09-09T04:24:29;15.65;78.78
70830;SHT30;58451;51.550;7.208;2022-09-09T04:26:58;15.65;78.76
70830;SHT30;58451;51.550;7.208;2022-09-09T04:29:25;15.65;79.25
70830;SHT30;58451;51.550;7.208;2022-09-09T04:31:52;15.67;78.88
70830;SHT30;58451;51.550;7.208;2022-09-09T04:34:19;15.65;78.77
70830;SHT30;58451;51.550;7.208;2022-09-09T04:36:48;15.64;78.73
70830;SHT30;58451;51.550;7.208;2022-09-09T04:39:15;15.62;78.74
70830;SHT30;58451;51.550;7.208;2022-09-09T04:41:43;15.61;78.79
70830;SHT30;58451;51.550;7.208;2022-09-09T04:44:11;15.62;78.88
70830;SHT30;58451;51.550;7.208;2022-09-09T04:46:38;15.61;78.84
70830;SHT30;58451;51.550;7.208;2022-09-09T04:49:07;15.60;78.81
70830;SHT30;58451;51.550;7.208;2022-09-09T04:51:41;15.59;78.78
70830;SHT30;58451;51.550;7.208;2022-09-09T04:54:09;15.58;78.86
70830;SHT30;58451;51.550;7.208;2022-09-09T04:56:40;15.58;78.81
70830;SHT30;58451;51.550;7.208;2022-09-09T05:02:39;15.59;79.18
70830;SHT30;58451;51.550;7.208;2022-09-09T05:05:12;15.63;79.02
70830;SHT30;58451;51.550;7.208;2022-09-09T05:07:45;15.67;79.58
70830;SHT30;58451;51.550;7.208;2022-09-09T05:13:39;15.81;79.08
70830;SHT30;58451;51.550;7.208;2022-09-09T05:16:07;15.87;79.12
70830;SHT30;58451;51.550;7.208;2022-09-09T05:18:38;15.91;79.09
70830;SHT30;58451;51.550;7.208;2022-09-09T05:21:10;15.97;78.93
70830;SHT30;58451;51.550;7.208;2022-09-09T05:23:47;16.03;79.09
70830;SHT30;58451;51.550;7.208;2022-09-09T05:26:23;16.08;78.89
70830;SHT30;58451;51.550;7.208;2022-09-09T05:28:51;16.11;78.80
70830;SHT30;58451;51.550;7.208;2022-09-09T05:31:18;16.16;78.73
70830;SHT30;58451;51.550;7.208;2022-09-09T05:33:49;16.22;78.75
70830;SHT30;58451;51.550;7.208;2022-09-09T05:36:20;16.27;78.66
70830;SHT30;58451;51.550;7.208;2022-09-09T05:38:52;16.34;78.90
70830;SHT30;58451;51.550;7.208;2022-09-09T05:41:25;16.42;78.75
70830;SHT30;58451;51.550;7.208;2022-09-09T05:43:54;16.48;78.52
70830;SHT30;58451;51.550;7.208;2022-09-09T05:46:27;16.54;78.43
70830;SHT30;58451;51.550;7.208;2022-09-09T05:48:57;16.62;78.29
70830;SHT30;58451;51.550;7.208;2022-09-09T05:51:27;16.69;78.13
70830;SHT30;58451;51.550;7.208;2022-09-09T05:54:03;16.78;77.96
70830;SHT30;58451;51.550;7.208;2022-09-09T05:56:33;16.88;77.85
70830;SHT30;58451;51.550;7.208;2022-09-09T05:59:01;16.97;77.68
70830;SHT30;58451;51.550;7.208;2022-09-09T06:01:30;17.07;77.61
70830;SHT30;58451;51.550;7.208;2022-09-09T06:04:14;17.16;77.40
70830;SHT30;58451;51.550;7.208;2022-09-09T06:06:44;17.24;77.26
70830;SHT30;58451;51.550;7.208;2022-09-09T06:09:14;17.31;77.10
70830;SHT30;58451;51.550;7.208;2022-09-09T06:11:41;17.39;76.93
70830;SHT30;58451;51.550;7.208;2022-09-09T06:14:10;17.46;76.76
70830;SHT30;58451;51.550;7.208;2022-09-09T06:16:38;17.54;76.59
70830;SHT30;58451;51.550;7.208;2022-09-09T06:19:14;17.63;76.43
70830;SHT30;58451;51.550;7.208;2022-09-09T06:21:41;17.70;76.24
70830;SHT30;58451;51.550;7.208;2022-09-09T06:24:12;17.77;76.02
70830;SHT30;58451;51.550;7.208;2022-09-09T06:26:40;17.85;75.91
70830;SHT30;58451;51.550;7.208;2022-09-09T06:29:10;17.91;75.78
70830;SHT30;58451;51.550;7.208;2022-09-09T06:31:38;17.97;75.65
70830;SHT30;58451;51.550;7.208;2022-09-09T06:34:13;18.00;75.34
70830;SHT30;58451;51.550;7.208;2022-09-09T06:36:43;18.08;75.32
70830;SHT30;58451;51.550;7.208;2022-09-09T06:39:13;18.15;75.16
70830;SHT30;58451;51.550;7.208;2022-09-09T06:41:49;18.21;74.92
70830;SHT30;58451;51.550;7.208;2022-09-09T06:44:56;18.32;74.73
70830;SHT30;58451;51.550;7.208;2022-09-09T06:47:35;18.42;74.58
70830;SHT30;58451;51.550;7.208;2022-09-09T06:50:02;18.53;74.26
70830;SHT30;58451;51.550;7.208;2022-09-09T06:52:31;18.67;73.77
70830;SHT30;58451;51.550;7.208;2022-09-09T06:54:58;18.75;73.60
70830;SHT30;58451;51.550;7.208;2022-09-09T06:57:29;18.85;73.48
70830;SHT30;58451;51.550;7.208;2022-09-09T07:00:23;18.99;73.44
70830;SHT30;58451;51.550;7.208;2022-09-09T07:02:51;19.19;73.21
70830;SHT30;58451;51.550;7.208;2022-09-09T07:05:20;19.41;72.58
70830;SHT30;58451;51.550;7.208;2022-09-09T07:07:47;19.63;72.14
70830;SHT30;58451;51.550;7.208;2022-09-09T07:10:17;19.78;71.49
70830;SHT30;58451;51.550;7.208;2022-09-09T07:12:44;19.85;71.49
70830;SHT30;58451;51.550;7.208;2022-09-09T07:15:12;19.91;71.06
70830;SHT30;58451;51.550;7.208;2022-09-09T07:17:43;20.00;71.07
70830;SHT30;58451;51.550;7.208;2022-09-09T07:20:11;20.12;70.33
70830;SHT30;58451;51.550;7.208;2022-09-09T07:22:38;20.28;69.29
70830;SHT30;58451;51.550;7.208;2022-09-09T07:25:09;20.43;68.71
70830;SHT30;58451;51.550;7.208;2022-09-09T07:27:36;20.51;68.33
70830;SHT30;58451;51.550;7.208;2022-09-09T07:30:05;20.57;67.88
70830;SHT30;58451;51.550;7.208;2022-09-09T07:32:34;20.59;67.88
70830;SHT30;58451;51.550;7.208;2022-09-09T07:35:01;20.69;68.09
70830;SHT30;58451;51.550;7.208;2022-09-09T07:37:35;20.82;67.03
70830;SHT30;58451;51.550;7.208;2022-09-09T07:40:04;20.84;66.34
70830;SHT30;58451;51.550;7.208;2022-09-09T07:42:35;20.93;65.56
70830;SHT30;58451;51.550;7.208;2022-09-09T07:45:05;21.04;65.02
70830;SHT30;58451;51.550;7.208;2022-09-09T07:47:39;21.08;63.99
70830;SHT30;58451;51.550;7.208;2022-09-09T07:50:10;21.09;63.47
70830;SHT30;58451;51.550;7.208;2022-09-09T07:52:40;21.24;63.27
70830;SHT30;58451;51.550;7.208;2022-09-09T07:55:07;21.47;62.96
70830;SHT30;58451;51.550;7.208;2022-09-09T07:57:35;21.69;62.46
70830;SHT30;58451;51.550;7.208;2022-09-09T08:00:04;21.76;61.92
70830;SHT30;58451;51.550;7.208;2022-09-09T08:02:41;21.81;62.18
70830;SHT30;58451;51.550;7.208;2022-09-09T08:05:08;21.72;61.54
70830;SHT30;58451;51.550;7.208;2022-09-09T08:07:38;21.64;60.87
70830;SHT30;58451;51.550;7.208;2022-09-09T08:10:05;21.61;61.41
70830;SHT30;58451;51.550;7.208;2022-09-09T08:12:36;21.75;61.29
70830;SHT30;58451;51.550;7.208;2022-09-09T08:15:03;21.87;60.91
70830;SHT30;58451;51.550;7.208;2022-09-09T08:17:42;22.04;60.62
70830;SHT30;58451;51.550;7.208;2022-09-09T08:20:12;22.29;58.73
70830;SHT30;58451;51.550;7.208;2022-09-09T08:22:39;22.50;58.39
70830;SHT30;58451;51.550;7.208;2022-09-09T08:25:07;22.55;57.97
70830;SHT30;58451;51.550;7.208;2022-09-09T08:27:37;22.41;58.45
70830;SHT30;58451;51.550;7.208;2022-09-09T08:30:05;22.30;57.49
70830;SHT30;58451;51.550;7.208;2022-09-09T08:32:33;22.12;57.52
70830;SHT30;58451;51.550;7.208;2022-09-09T08:35:03;22.02;58.45
70830;SHT30;58451;51.550;7.208;2022-09-09T08:37:33;21.99;57.48
70830;SHT30;58451;51.550;7.208;2022-09-09T08:40:01;21.79;57.76
70830;SHT30;58451;51.550;7.208;2022-09-09T08:42:35;21.76;58.56
70830;SHT30;58451;51.550;7.208;2022-09-09T08:49:11;22.27;56.94
70830;SHT30;58451;51.550;7.208;2022-09-09T08:52:54;22.52;57.18
70830;SHT30;58451;51.550;7.208;2022-09-09T08:58:34;22.34;55.82
70830;SHT30;58451;51.550;7.208;2022-09-09T09:04:48;22.21;54.69
70830;SHT30;58451;51.550;7.208;2022-09-09T09:13:23;21.81;55.38
70830;SHT30;58451;51.550;7.208;2022-09-09T09:17:01;21.59;55.88
70830;SHT30;58451;51.550;7.208;2022-09-09T09:19:16;21.41;56.42
70830;SHT30;58451;51.550;7.208;2022-09-09T09:21:50;21.26;56.07
70830;SHT30;58451;51.550;7.208;2022-09-09T09:24:47;21.11;56.59
70830;SHT30;58451;51.550;7.208;2022-09-09T09:27:36;21.11;56.60
70830;SHT30;58451;51.550;7.208;2022-09-09T09:30:22;21.21;56.41
70830;SHT30;58451;51.550;7.208;2022-09-09T09:33:05;21.36;55.89
70830;SHT30;58451;51.550;7.208;2022-09-09T09:35:58;21.49;56.20
70830;SHT30;58451;51.550;7.208;2022-09-09T09:38:27;21.81;55.65
70830;SHT30;58451;51.550;7.208;2022-09-09T09:41:17;22.12;52.43
70830;SHT30;58451;51.550;7.208;2022-09-09T09:47:05;22.76;53.64
70830;SHT30;58451;51.550;7.208;2022-09-09T09:52:56;23.32;50.26
70830;SHT30;58451;51.550;7.208;2022-09-09T09:55:35;23.38;49.34
70830;SHT30;58451;51.550;7.208;2022-09-09T09:58:20;23.18;49.56
70830;SHT30;58451;51.550;7.208;2022-09-09T10:00:48;23.36;50.98
70830;SHT30;58451;51.550;7.208;2022-09-09T10:03:28;23.68;50.47
70830;SHT30;58451;51.550;7.208;2022-09-09T10:05:59;23.96;49.92
70830;SHT30;58451;51.550;7.208;2022-09-09T10:08:43;24.14;49.96
70830;SHT30;58451;51.550;7.208;2022-09-09T10:11:55;24.13;49.28
70830;SHT30;58451;51.550;7.208;2022-09-09T10:17:29;24.07;49.30
70830;SHT30;58451;51.550;7.208;2022-09-09T10:22:52;24.19;46.99
70830;SHT30;58451;51.550;7.208;2022-09-09T10:35:24;24.62;46.76
70830;SHT30;58451;51.550;7.208;2022-09-09T10:38:39;25.05;45.60
70830;SHT30;58451;51.550;7.208;2022-09-09T10:41:23;25.13;43.47
70830;SHT30;58451;51.550;7.208;2022-09-09T10:51:05;24.23;44.43
70830;SHT30;58451;51.550;7.208;2022-09-09T11:00:46;23.95;44.12
70830;SHT30;58451;51.550;7.208;2022-09-09T11:03:24;24.11;44.88
70830;SHT30;58451;51.550;7.208;2022-09-09T11:06:05;24.42;43.71
70830;SHT30;58451;51.550;7.208;2022-09-09T11:08:41;24.34;42.61
70830;SHT30;58451;51.550;7.208;2022-09-09T11:11:12;24.46;44.18
70830;SHT30;58451;51.550;7.208;2022-09-09T11:17:45;24.48;42.97
70830;SHT30;58451;51.550;7.208;2022-09-09T11:44:44;23.81;44.55
70830;SHT30;58451;51.550;7.208;2022-09-09T11:47:32;24.16;44.61
70830;SHT30;58451;51.550;7.208;2022-09-09T11:53:18;25.09;43.38
70830;SHT30;58451;51.550;7.208;2022-09-09T11:56:56;25.07;42.55
70830;SHT30;58451;51.550;7.208;2022-09-09T12:05:58;25.33;42.36
70830;SHT30;58451;51.550;7.208;2022-09-09T12:12:34;25.14;42.39
70830;SHT30;58451;51.550;7.208;2022-09-09T12:59:25;24.91;45.77
70830;SHT30;58451;51.550;7.208;2022-09-09T13:02:16;24.92;44.71
70830;SHT30;58451;51.550;7.208;2022-09-09T13:04:46;24.50;45.33
70830;SHT30;58451;51.550;7.208;2022-09-09T13:07:20;24.33;46.08
70830;SHT30;58451;51.550;7.208;2022-09-09T13:09:48;24.25;46.67
70830;SHT30;58451;51.550;7.208;2022-09-09T13:12:19;24.18;47.15
70830;SHT30;58451;51.550;7.208;2022-09-09T13:14:55;24.09;47.59
70830;SHT30;58451;51.550;7.208;2022-09-09T13:17:25;24.18;47.48
70830;SHT30;58451;51.550;7.208;2022-09-09T13:19:57;24.23;47.26
70830;SHT30;58451;51.550;7.208;2022-09-09T13:24:58;24.11;46.91
70830;SHT30;58451;51.550;7.208;2022-09-09T13:27:53;23.85;47.66
70830;SHT30;58451;51.550;7.208;2022-09-09T13:30:33;23.50;48.46
70830;SHT30;58451;51.550;7.208;2022-09-09T13:33:19;23.20;49.17
70830;SHT30;58451;51.550;7.208;2022-09-09T13:35:56;22.88;49.96
70830;SHT30;58451;51.550;7.208;2022-09-09T13:38:55;22.55;50.55
70830;SHT30;58451;51.550;7.208;2022-09-09T13:41:30;22.18;51.77
70830;SHT30;58451;51.550;7.208;2022-09-09T13:44:03;21.78;53.35
70830;SHT30;58451;51.550;7.208;2022-09-09T13:46:38;21.38;56.49
70830;SHT30;58451;51.550;7.208;2022-09-09T13:51:42;20.67;62.17
70830;SHT30;58451;51.550;7.208;2022-09-09T13:54:15;20.37;64.16
70830;SHT30;58451;51.550;7.208;2022-09-09T13:56:47;20.28;63.35
70830;SHT30;58451;51.550;7.208;2022-09-09T13:59:17;20.21;63.04
70830;SHT30;58451;51.550;7.208;2022-09-09T14:01:48;20.02;63.10
70830;SHT30;58451;51.550;7.208;2022-09-09T14:04:19;19.85;63.18
70830;SHT30;58451;51.550;7.208;2022-09-09T14:06:49;19.78;64.16
70830;SHT30;58451;51.550;7.208;2022-09-09T14:09:18;19.68;65.81
70830;SHT30;58451;51.550;7.208;2022-09-09T14:11:46;19.44;67.27
70830;SHT30;58451;51.550;7.208;2022-09-09T14:14:13;19.39;66.05
70830;SHT30;58451;51.550;7.208;2022-09-09T14:16:41;19.66;66.05
70830;SHT30;58451;51.550;7.208;2022-09-09T14:19:08;20.42;65.53
70830;SHT30;58451;51.550;7.208;2022-09-09T14:21:36;21.94;63.73
70830;SHT30;58451;51.550;7.208;2022-09-09T14:24:03;23.39;61.36
70830;SHT30;58451;51.550;7.208;2022-09-09T14:26:30;24.65;59.80
70830;SHT30;58451;51.550;7.208;2022-09-09T14:28:58;25.40;58.59
70830;SHT30;58451;51.550;7.208;2022-09-09T14:31:25;25.99;56.73
70830;SHT30;58451;51.550;7.208;2022-09-09T14:33:54;26.07;55.92
70830;SHT30;58451;51.550;7.208;2022-09-09T14:36:22;25.79;56.36
70830;SHT30;58451;51.550;7.208;2022-09-09T14:38:50;25.51;55.71
70830;SHT30;58451;51.550;7.208;2022-09-09T14:41:19;25.22;56.09
70830;SHT30;58451;51.550;7.208;2022-09-09T14:43:49;24.95;56.44
70830;SHT30;58451;51.550;7.208;2022-09-09T14:46:18;24.62;56.73
70830;SHT30;58451;51.550;7.208;2022-09-09T14:48:50;24.25;57.12
70830;SHT30;58451;51.550;7.208;2022-09-09T14:51:25;23.91;57.24
70830;SHT30;58451;51.550;7.208;2022-09-09T14:53:55;23.72;58.11
70830;SHT30;58451;51.550;7.208;2022-09-09T14:56:27;23.54;59.12
70830;SHT30;58451;51.550;7.208;2022-09-09T14:58:58;23.30;59.60
70830;SHT30;58451;51.550;7.208;2022-09-09T15:01:27;23.95;58.69
70830;SHT30;58451;51.550;7.208;2022-09-09T15:04:01;23.78;59.25
70830;SHT30;58451;51.550;7.208;2022-09-09T15:06:31;23.62;59.77
70830;SHT30;58451;51.550;7.208;2022-09-09T15:09:08;23.35;60.19
70830;SHT30;58451;51.550;7.208;2022-09-09T15:11:36;23.05;60.26
70830;SHT30;58451;51.550;7.208;2022-09-09T15:14:05;22.73;60.90
70830;SHT30;58451;51.550;7.208;2022-09-09T15:16:36;22.36;61.33
70830;SHT30;58451;51.550;7.208;2022-09-09T15:19:05;22.02;62.36
70830;SHT30;58451;51.550;7.208;2022-09-09T15:21:35;21.72;62.34
70830;SHT30;58451;51.550;7.208;2022-09-09T15:24:07;21.42;62.56
70830;SHT30;58451;51.550;7.208;2022-09-09T15:26:35;21.08;63.88
70830;SHT30;58451;51.550;7.208;2022-09-09T15:29:06;20.67;65.40
70830;SHT30;58451;51.550;7.208;2022-09-09T15:31:36;20.06;67.62
70830;SHT30;58451;51.550;7.208;2022-09-09T15:34:04;19.42;67.47
70830;SHT30;58451;51.550;7.208;2022-09-09T15:36:37;18.92;67.76
70830;SHT30;58451;51.550;7.208;2022-09-09T15:39:15;18.62;67.81
70830;SHT30;58451;51.550;7.208;2022-09-09T15:41:45;18.37;68.71
70830;SHT30;58451;51.550;7.208;2022-09-09T15:44:15;18.25;68.54
70830;SHT30;58451;51.550;7.208;2022-09-09T15:46:44;18.33;68.17
70830;SHT30;58451;51.550;7.208;2022-09-09T15:49:25;18.44;68.41
70830;SHT30;58451;51.550;7.208;2022-09-09T15:51:54;18.48;68.59
70830;SHT30;58451;51.550;7.208;2022-09-09T15:54:25;18.58;68.56
70830;SHT30;58451;51.550;7.208;2022-09-09T15:56:54;18.71;68.48
70830;SHT30;58451;51.550;7.208;2022-09-09T15:59:26;18.81;68.30
70830;SHT30;58451;51.550;7.208;2022-09-09T16:01:56;18.87;68.70
70830;SHT30;58451;51.550;7.208;2022-09-09T16:04:25;18.91;68.21
70830;SHT30;58451;51.550;7.208;2022-09-09T16:07:01;18.92;69.02
70830;SHT30;58451;51.550;7.208;2022-09-09T16:09:31;18.91;68.20
70830;SHT30;58451;51.550;7.208;2022-09-09T16:12:00;18.96;67.98
70830;SHT30;58451;51.550;7.208;2022-09-09T16:14:36;19.07;67.69
70830;SHT30;58451;51.550;7.208;2022-09-09T16:17:03;19.16;67.57
70830;SHT30;58451;51.550;7.208;2022-09-09T16:19:32;19.28;67.51
70830;SHT30;58451;51.550;7.208;2022-09-09T16:22:01;19.53;67.62
70830;SHT30;58451;51.550;7.208;2022-09-09T16:24:30;19.86;66.71
70830;SHT30;58451;51.550;7.208;2022-09-09T16:26:58;19.92;66.59
70830;SHT30;58451;51.550;7.208;2022-09-09T16:29:25;20.10;66.31
70830;SHT30;58451;51.550;7.208;2022-09-09T16:31:54;21.09;65.09
70830;SHT30;58451;51.550;7.208;2022-09-09T16:34:29;21.74;63.80
70830;SHT30;58451;51.550;7.208;2022-09-09T16:37:00;21.83;63.69
70830;SHT30;58451;51.550;7.208;2022-09-09T16:39:28;22.02;62.95
70830;SHT30;58451;51.550;7.208;2022-09-09T16:41:55;22.00;62.77
70830;SHT30;58451;51.550;7.208;2022-09-09T16:44:23;21.83;62.85
70830;SHT30;58451;51.550;7.208;2022-09-09T16:46:52;21.57;62.93
70830;SHT30;58451;51.550;7.208;2022-09-09T16:49:25;21.22;63.06
70830;SHT30;58451;51.550;7.208;2022-09-09T16:51:56;20.87;63.54
70830;SHT30;58451;51.550;7.208;2022-09-09T16:54:26;20.58;63.84
70830;SHT30;58451;51.550;7.208;2022-09-09T16:56:55;20.37;64.39
70830;SHT30;58451;51.550;7.208;2022-09-09T16:59:23;20.24;64.55
70830;SHT30;58451;51.550;7.208;2022-09-09T17:01:52;20.05;65.19
70830;SHT30;58451;51.550;7.208;2022-09-09T17:04:22;19.90;65.44
70830;SHT30;58451;51.550;7.208;2022-09-09T17:06:56;19.73;65.76
70830;SHT30;58451;51.550;7.208;2022-09-09T17:09:24;19.56;66.12
70830;SHT30;58451;51.550;7.208;2022-09-09T17:11:55;19.41;66.32
70830;SHT30;58451;51.550;7.208;2022-09-09T17:14:23;19.27;66.79
70830;SHT30;58451;51.550;7.208;2022-09-09T17:16:50;19.11;66.76
70830;SHT30;58451;51.550;7.208;2022-09-09T17:19:17;18.96;66.98
70830;SHT30;58451;51.550;7.208;2022-09-09T17:21:45;18.81;67.65
70830;SHT30;58451;51.550;7.208;2022-09-09T17:24:34;18.66;67.63
70830;SHT30;58451;51.550;7.208;2022-09-09T17:27:01;18.54;68.04
70830;SHT30;58451;51.550;7.208;2022-09-09T17:29:31;18.44;68.32
70830;SHT30;58451;51.550;7.208;2022-09-09T17:31:58;18.34;70.05
70830;SHT30;58451;51.550;7.208;2022-09-09T17:34:26;18.23;69.65
70830;SHT30;58451;51.550;7.208;2022-09-09T17:36:53;18.14;69.92
70830;SHT30;58451;51.550;7.208;2022-09-09T17:39:21;18.05;70.93
70830;SHT30;58451;51.550;7.208;2022-09-09T17:41:48;17.97;70.68
70830;SHT30;58451;51.550;7.208;2022-09-09T17:44:15;17.90;70.84
70830;SHT30;58451;51.550;7.208;2022-09-09T17:46:42;17.83;71.33
70830;SHT30;58451;51.550;7.208;2022-09-09T17:49:12;17.76;71.04
70830;SHT30;58451;51.550;7.208;2022-09-09T17:51:43;17.73;71.07
70830;SHT30;58451;51.550;7.208;2022-09-09T17:54:13;17.69;71.07
70830;SHT30;58451;51.550;7.208;2022-09-09T17:56:45;17.65;71.25
70830;SHT30;58451;51.550;7.208;2022-09-09T17:59:14;17.60;71.99
70830;SHT30;58451;51.550;7.208;2022-09-09T18:01:44;17.53;72.08
70830;SHT30;58451;51.550;7.208;2022-09-09T18:04:15;17.49;72.00
70830;SHT30;58451;51.550;7.208;2022-09-09T18:06:45;17.45;72.00
70830;SHT30;58451;51.550;7.208;2022-09-09T18:09:18;17.43;72.32
70830;SHT30;58451;51.550;7.208;2022-09-09T18:11:50;17.41;72.55
70830;SHT30;58451;51.550;7.208;2022-09-09T18:14:23;17.37;72.92
70830;SHT30;58451;51.550;7.208;2022-09-09T18:16:57;17.33;73.28
70830;SHT30;58451;51.550;7.208;2022-09-09T18:19:26;17.29;73.14
70830;SHT30;58451;51.550;7.208;2022-09-09T18:22:04;17.27;74.03
70830;SHT30;58451;51.550;7.208;2022-09-09T18:24:32;17.24;74.19
70830;SHT30;58451;51.550;7.208;2022-09-09T18:27:01;17.23;73.67
70830;SHT30;58451;51.550;7.208;2022-09-09T18:29:30;17.22;74.05
70830;SHT30;58451;51.550;7.208;2022-09-09T18:31:56;17.21;74.00
70830;SHT30;58451;51.550;7.208;2022-09-09T18:34:26;17.21;73.96
70830;SHT30;58451;51.550;7.208;2022-09-09T18:36:55;17.21;73.84
70830;SHT30;58451;51.550;7.208;2022-09-09T18:39:25;17.21;74.02
70830;SHT30;58451;51.550;7.208;2022-09-09T18:41:56;17.21;74.10
70830;SHT30;58451;51.550;7.208;2022-09-09T18:44:28;17.21;74.29
70830;SHT30;58451;51.550;7.208;2022-09-09T18:47:00;17.20;74.08
70830;SHT30;58451;51.550;7.208;2022-09-09T18:49:29;17.19;74.38
70830;SHT30;58451;51.550;7.208;2022-09-09T18:51:58;17.18;74.38
70830;SHT30;58451;51.550;7.208;2022-09-09T18:54:26;17.17;74.67
70830;SHT30;58451;51.550;7.208;2022-09-09T18:56:56;17.16;74.80
70830;SHT30;58451;51.550;7.208;2022-09-09T18:59:27;17.13;74.93
70830;SHT30;58451;51.550;7.208;2022-09-09T19:01:55;17.10;74.89
70830;SHT30;58451;51.550;7.208;2022-09-09T19:04:22;17.08;74.99
70830;SHT30;58451;51.550;7.208;2022-09-09T19:06:52;17.06;74.78
70830;SHT30;58451;51.550;7.208;2022-09-09T19:09:28;17.04;75.01
70830;SHT30;58451;51.550;7.208;2022-09-09T19:12:00;16.99;74.94
70830;SHT30;58451;51.550;7.208;2022-09-09T19:14:28;17.00;75.47
70830;SHT30;58451;51.550;7.208;2022-09-09T19:16:56;16.98;75.64
70830;SHT30;58451;51.550;7.208;2022-09-09T19:19:25;16.96;75.16
70830;SHT30;58451;51.550;7.208;2022-09-09T19:21:55;16.95;75.17
70830;SHT30;58451;51.550;7.208;2022-09-09T19:24:25;16.94;75.55
70830;SHT30;58451;51.550;7.208;2022-09-09T19:26:58;16.94;75.99
70830;SHT30;58451;51.550;7.208;2022-09-09T19:29:33;16.94;75.64
70830;SHT30;58451;51.550;7.208;2022-09-09T19:32:09;16.95;75.54
70830;SHT30;58451;51.550;7.208;2022-09-09T19:35:01;16.97;75.46